Hopwood, Pennsylvania
Current Conditions -  °F | °C
As of 12:53 PM on Saturday 25 Oct 2014 (Local Time) from KMGW Reporting Station
Scattered Clouds Scattered Clouds  
Wind Chill: 61°   Ceiling: Unl
Heat Index: 61°   Visibility: 10mi
Dew Point: 45°   Wind: 8mph
Humidity: 56%   Direction: 200°SSW
Pressure: 29.94"   Gusts: 20mph
Location:  39.88°N, 79.7°W
Report Text: KMGW 251653Z 20007G17KT 180V250 10SM SCT100 16/07 A2994 RMK AO2 SLP138 T01610072
Loading
Personal Weather Stations






























Interactive Weather Map
Tropical Storm Tracking
New forecast layout! Learn more

10-Day Weather Forecast

Advertisements
Track Severe Weather on mobile